Time;durP1;ratioP1;P1;durP2;ratioP2;P2;SDS_P1;SDS_P2;PMS_P1;PMS_P2;Temp;Humidity;BMP_temperature;BMP_pressure;BME280_temperature;BME280_humidity;BME280_pressure;Samples;Min_cycle;Max_cycle;Signal;HPM_P1;HPM_P2
2022/04/04 00:00:15;;;;;;;10.85;4.78;;;-3.20;1.00;;;-2.53;62.04;98458.91;5041320;27;119502;-64
2022/04/04 00:02:44;;;;;;;8.98;4.90;;;-3.10;1.00;;;-2.54;62.30;98458.09;5040558;27;129826;-64
2022/04/04 00:05:13;;;;;;;9.60;4.70;;;-3.00;1.00;;;-2.57;62.06;98458.59;5040298;27;129537;-65
2022/04/04 00:07:43;;;;;;;7.90;4.10;;;-3.00;1.00;;;-2.53;61.78;98459.69;5039294;27;121820;-64
2022/04/04 00:10:12;;;;;;;8.80;5.00;;;-2.90;1.00;;;-2.48;61.77;98460.81;5022358;27;122298;-64
2022/04/04 00:12:41;;;;;;;8.20;4.72;;;-3.00;1.00;;;-2.46;61.97;98464.00;5040374;27;129791;-64
2022/04/04 00:15:10;;;;;;;7.95;4.55;;;-3.00;1.00;;;-2.47;61.48;98459.75;5040431;27;129885;-64
2022/04/04 00:17:39;;;;;;;7.97;4.00;;;-3.00;1.00;;;-2.47;61.61;98467.72;5025665;27;119194;-63
2022/04/04 00:20:10;;;;;;;8.25;4.30;;;-3.10;1.00;;;-2.47;61.53;98462.41;5042527;27;120043;-64
2022/04/04 00:22:39;;;;;;;9.02;3.90;;;-3.00;1.00;;;-2.44;61.44;98462.72;5040296;27;129813;-64
2022/04/04 00:25:09;;;;;;;7.72;4.18;;;-2.80;1.00;;;-2.31;60.82;98466.81;5040460;27;129462;-63
2022/04/04 00:27:39;;;;;;;10.48;4.20;;;-2.70;1.00;;;-2.28;61.37;98471.63;5040572;27;119726;-64
2022/04/04 00:30:08;;;;;;;8.55;4.03;;;-2.70;1.00;;;-2.23;61.22;98473.53;5040801;27;120237;-64
2022/04/04 00:32:37;;;;;;;8.55;4.57;;;-2.50;1.00;;;-2.18;61.05;98470.91;5020934;27;129705;-63
2022/04/04 00:35:06;;;;;;;8.52;4.00;;;-2.60;1.00;;;-2.20;61.61;98473.84;5025020;27;128570;-64
2022/04/04 00:37:37;;;;;;;7.95;4.20;;;-2.60;1.00;;;-2.18;60.91;98469.06;5040092;27;119897;-64
2022/04/04 00:40:08;;;;;;;8.48;4.20;;;-2.40;1.00;;;-2.13;60.49;98472.81;5025379;27;117946;-63
2022/04/04 00:42:37;;;;;;;7.20;4.03;;;-2.30;1.00;;;-2.07;59.55;98477.91;5039897;27;129644;-64
2022/04/04 00:45:07;;;;;;;8.55;5.13;;;-2.30;1.00;;;-1.99;58.96;98481.97;5040007;27;130049;-64
2022/04/04 00:47:36;;;;;;;10.43;4.18;;;-2.20;1.00;;;-1.99;58.84;98474.78;5040005;27;119932;-63
2022/04/04 00:50:06;;;;;;;7.43;4.25;;;-2.10;1.00;;;-1.96;59.01;98478.81;5025460;27;119256;-63
2022/04/04 00:52:35;;;;;;;9.00;4.80;;;-2.10;1.00;;;-1.91;58.17;98481.50;5039856;27;130591;-64
2022/04/04 00:55:05;;;;;;;8.05;3.90;;;-2.00;1.00;;;-1.85;58.28;98474.38;5039492;27;130046;-66
2022/04/04 00:57:37;;;;;;;8.70;4.32;;;-2.00;1.00;;;-1.87;57.84;98484.44;5039110;27;122037;-64
2022/04/04 01:00:07;;;;;;;7.22;4.20;;;-1.90;1.00;;;-1.85;58.67;98477.81;5041940;27;120273;-64
2022/04/04 01:02:36;;;;;;;8.45;4.20;;;-1.90;1.00;;;-1.78;58.83;98471.47;5039369;27;130611;-64
2022/04/04 01:05:05;;;;;;;9.68;4.45;;;-1.90;1.00;;;-1.72;58.30;98470.47;5039531;27;129583;-65
2022/04/04 01:07:38;;;;;;;7.68;4.15;;;-1.80;1.00;;;-1.73;58.81;98471.50;5039991;27;119537;-65
2022/04/04 01:10:09;;;;;;;7.97;4.28;;;-1.80;1.00;;;-1.71;58.62;98469.41;5042065;27;120148;-64
2022/04/04 01:12:49;;;;;;;10.73;4.10;;;-1.70;1.00;;;-1.66;58.67;98472.88;5024557;27;129347;-64
2022/04/04 01:15:18;;;;;;;9.98;4.47;;;-1.70;1.00;;;-1.63;58.81;98460.94;5039901;27;129994;-63
2022/04/04 01:17:47;;;;;;;6.90;3.65;;;-1.70;1.00;;;-1.64;59.53;98462.00;5039124;27;119325;-64
2022/04/04 01:20:15;;;;;;;11.38;4.43;;;-1.70;1.00;;;-1.54;59.42;98466.56;5041220;27;119468;-63
2022/04/04 01:22:48;;;;;;;9.02;3.83;;;-1.70;1.00;;;-1.50;59.46;98465.78;5038178;27;130294;-64
2022/04/04 01:25:24;;;;;;;9.95;4.35;;;-1.70;1.00;;;-1.57;60.08;98459.09;5038939;27;129437;-64
2022/04/04 01:27:55;;;;;;;8.18;4.40;;;-1.70;1.00;;;-1.58;60.05;98468.94;5024517;27;118816;-64
2022/04/04 01:30:25;;;;;;;8.80;3.40;;;-1.70;1.00;;;-1.53;59.79;98460.97;5039646;27;120001;-63
2022/04/04 01:32:55;;;;;;;8.95;4.13;;;-1.70;1.00;;;-1.46;60.18;98466.88;5023902;27;128610;-63
2022/04/04 01:35:24;;;;;;;7.00;3.63;;;-1.70;1.00;;;-1.47;61.19;98456.50;5024152;27;129316;-64
2022/04/04 01:37:53;;;;;;;8.00;4.20;;;-1.80;1.00;;;-1.43;60.73;98460.25;5039393;27;119952;-64
2022/04/04 01:40:23;;;;;;;10.70;4.20;;;-1.80;1.00;;;-1.48;60.34;98461.03;5039688;27;120139;-64
2022/04/04 01:42:55;;;;;;;7.88;4.32;;;-1.90;1.00;;;-1.56;60.58;98456.19;5038877;27;130130;-63
2022/04/04 01:48:10;;;;;;;8.55;4.03;;;-2.00;1.00;;;-1.68;61.29;98451.06;5039198;27;122410;-63
2022/04/04 01:50:39;;;;;;;8.20;4.38;;;-2.10;1.00;;;-1.67;61.19;98451.88;5039417;27;121796;-63
2022/04/04 01:55:58;;;;;;;7.23;3.70;;;-2.30;1.00;;;-1.80;61.49;98445.13;5038879;27;129547;-63
2022/04/04 01:58:27;;;;;;;9.50;4.53;;;-2.30;1.00;;;-1.82;61.70;98450.72;5039120;27;119594;-63
2022/04/04 02:00:56;;;;;;;7.82;4.05;;;-2.40;1.00;;;-1.75;61.82;98449.69;5007456;27;118527;-65
2022/04/04 02:03:25;;;;;;;9.05;4.32;;;-2.40;1.00;;;-1.74;61.52;98445.97;5038788;27;130293;-63
2022/04/04 02:05:54;;;;;;;10.38;4.40;;;-2.40;1.00;;;-1.68;61.66;98443.09;5023884;27;129115;-63
2022/04/04 02:08:23;;;;;;;8.73;4.65;;;-2.40;1.00;;;-1.63;61.59;98451.09;5038927;27;120977;-64
2022/04/04 02:10:52;;;;;;;6.50;4.10;;;-2.30;1.00;;;-1.54;61.51;98443.44;5038967;27;119336;-64
2022/04/04 02:13:23;;;;;;;9.00;4.13;;;-2.20;1.00;;;-1.47;61.23;98444.00;5037292;27;130230;-64
2022/04/04 02:15:52;;;;;;;8.10;3.97;;;-2.20;1.00;;;-1.45;61.18;98449.06;5038618;27;130371;-62
2022/04/04 02:18:20;;;;;;;11.25;4.28;;;-2.10;1.00;;;-1.36;60.64;98444.06;5038897;27;119791;-63
2022/04/04 02:20:50;;;;;;;7.03;3.85;;;-2.00;1.00;;;-1.38;60.80;98451.50;5022966;27;119457;-64
2022/04/04 02:23:20;;;;;;;7.78;3.60;;;-2.00;1.00;;;-1.33;61.04;98443.53;5023324;27;129674;-64
2022/04/04 02:25:50;;;;;;;8.45;4.28;;;-1.90;1.00;;;-1.30;60.91;98443.00;5006553;27;128369;-64
2022/04/04 02:28:21;;;;;;;7.25;3.78;;;-1.90;1.00;;;-1.30;61.51;98445.69;5038810;27;120104;-63
2022/04/04 02:30:51;;;;;;;9.95;4.57;;;-1.90;1.00;;;-1.23;61.60;98448.91;5040648;27;119323;-64
2022/04/04 02:33:21;;;;;;;7.93;4.10;;;-1.80;1.00;;;-1.24;61.98;98441.97;5041882;27;130042;-63
2022/04/04 02:35:52;;;;;;;9.38;4.22;;;-1.80;1.00;;;-1.22;62.79;98445.19;5041909;27;129633;-63
2022/04/04 02:38:22;;;;;;;12.30;5.28;;;-1.80;1.00;;;-1.12;62.43;98434.56;5040798;27;121890;-64
2022/04/04 02:40:51;;;;;;;7.88;3.90;;;-1.70;1.00;;;-1.09;62.41;98438.59;5041897;27;121975;-65
2022/04/04 02:43:23;;;;;;;7.65;4.07;;;-1.70;1.00;;;-1.05;62.25;98446.84;5026894;27;129618;-64
2022/04/04 02:45:52;;;;;;;12.40;4.38;;;-1.70;1.00;;;-1.15;62.99;98445.75;5041956;27;131051;-65
2022/04/04 02:48:21;;;;;;;8.15;3.80;;;-1.60;1.00;;;-1.18;63.06;98450.81;5042291;27;120271;-65
2022/04/04 02:50:52;;;;;;;8.38;4.43;;;-1.60;1.00;;;-1.17;62.95;98447.88;5042238;27;119485;-65
2022/04/04 02:53:20;;;;;;;7.85;3.95;;;-1.60;1.00;;;-1.17;63.05;98445.22;5042231;27;130241;-64
2022/04/04 02:58:37;;;;;;;11.57;4.20;;;-1.60;1.00;;;-1.19;63.14;98449.97;5042122;27;120027;-63
2022/04/04 03:01:05;;;;;;;7.20;3.67;;;-1.50;1.00;;;-1.15;63.08;98451.06;5041854;27;120144;-64
2022/04/04 03:03:34;;;;;;;7.80;3.97;;;-1.60;1.00;;;-1.25;63.24;98445.69;5040588;27;129713;-64
2022/04/04 03:06:02;;;;;;;9.55;4.32;;;-1.50;1.00;;;-1.24;64.05;98446.50;5041324;27;129691;-65
2022/04/04 03:08:31;;;;;;;10.85;5.20;;;-1.50;1.00;;;-1.26;63.99;98438.78;5026484;27;118386;-64
2022/04/04 03:10:59;;;;;;;10.77;4.97;;;-1.50;1.00;;;-1.24;64.10;98441.97;5041691;27;119494;-64
2022/04/04 03:13:29;;;;;;;28.50;13.18;;;-1.50;1.00;;;-1.29;64.40;98460.59;5041361;27;130191;-64
2022/04/04 03:15:59;;;;;;;9.88;5.38;;;-1.50;1.00;;;-1.23;64.26;98454.25;5041304;27;129631;-64
2022/04/04 03:18:28;;;;;;;8.82;4.05;;;-1.50;1.00;;;-1.28;64.88;98451.53;5041837;27;119788;-64
2022/04/04 03:20:57;;;;;;;10.68;4.07;;;-1.40;1.00;;;-1.32;65.38;98455.78;5044783;27;120345;-65
2022/04/04 03:23:27;;;;;;;8.43;4.00;;;-1.40;1.00;;;-1.23;64.65;98459.56;5026073;27;129864;-65
2022/04/04 03:25:55;;;;;;;9.25;3.85;;;-1.40;1.00;;;-1.31;65.01;98457.38;5023265;27;129521;-64
2022/04/04 03:28:25;;;;;;;8.63;3.97;;;-1.40;1.00;;;-1.24;64.73;98463.28;5040393;27;122017;-64
2022/04/04 03:30:54;;;;;;;8.63;3.97;;;-1.40;1.00;;;-1.24;65.07;98457.94;5009798;27;121106;-64
2022/04/04 03:33:25;;;;;;;9.77;4.55;;;-1.40;1.00;;;-1.22;65.61;98455.81;5026198;27;129991;-64
2022/04/04 03:35:53;;;;;;;7.63;3.80;;;-1.40;1.00;;;-1.16;65.62;98454.78;5025839;27;129862;-64
2022/04/04 03:38:22;;;;;;;6.90;3.92;;;-1.40;1.00;;;-1.10;65.67;98458.28;5041193;27;119693;-63
2022/04/04 03:40:51;;;;;;;7.32;3.72;;;-1.40;1.00;;;-0.98;65.41;98455.38;5040990;27;120262;-64
2022/04/04 03:43:19;;;;;;;9.35;3.58;;;-1.40;1.00;;;-0.88;65.50;98460.75;5041231;27;130024;-63
2022/04/04 03:45:48;;;;;;;7.35;3.80;;;-1.30;1.00;;;-0.77;65.35;98457.06;5023208;27;130387;-63
2022/04/04 03:48:17;;;;;;;7.25;3.47;;;-1.30;1.00;;;-0.78;65.34;98460.78;5041371;27;120344;-63
2022/04/04 03:50:47;;;;;;;7.18;4.05;;;-1.30;1.00;;;-0.80;65.86;98462.91;5025942;27;118186;-62
2022/04/04 03:53:16;;;;;;;6.90;3.60;;;-1.30;1.00;;;-0.76;66.15;98464.00;5039622;27;130147;-63
2022/04/04 03:55:45;;;;;;;7.53;3.75;;;-1.20;1.00;;;-0.75;66.44;98459.44;5040825;27;129363;-62
2022/04/04 03:58:13;;;;;;;8.05;3.83;;;-1.20;1.00;;;-0.68;66.44;98459.22;5025993;27;119024;-64
2022/04/04 04:00:42;;;;;;;11.02;3.65;;;-1.20;1.00;;;-0.60;66.22;98461.38;5041029;27;119504;-64
2022/04/04 04:03:11;;;;;;;11.07;4.20;;;-1.20;1.00;;;-0.52;66.15;98452.84;5025729;27;130312;-63
2022/04/04 04:05:39;;;;;;;9.10;3.78;;;-1.10;1.00;;;-0.46;66.12;98449.13;5040344;27;129761;-63
2022/04/04 04:08:09;;;;;;;7.63;3.25;;;-1.10;1.00;;;-0.38;66.14;98453.91;5009329;27;119251;-63
2022/04/04 04:10:38;;;;;;;6.30;3.28;;;-1.00;1.00;;;-0.27;66.55;98453.94;5041465;27;119282;-63
2022/04/04 04:13:07;;;;;;;10.07;3.55;;;-1.00;1.00;;;-0.28;66.47;98457.66;5038812;27;129716;-64
2022/04/04 04:15:36;;;;;;;6.90;3.63;;;-0.90;1.00;;;-0.30;67.21;98451.81;5036969;27;130214;-64
2022/04/04 04:18:04;;;;;;;6.53;3.15;;;-0.90;1.00;;;-0.27;67.47;98453.94;5023885;27;121224;-63
2022/04/04 04:20:34;;;;;;;6.70;3.13;;;-0.80;1.00;;;-0.22;67.82;98457.44;5042536;27;121802;-61
2022/04/04 04:23:07;;;;;;;6.68;3.08;;;-0.80;1.00;;;-0.10;67.61;98454.47;5038907;27;129939;-70
2022/04/04 04:25:38;;;;;;;8.68;3.38;;;-0.70;1.00;;;-0.05;67.53;98462.50;5040098;27;129509;-67
2022/04/04 04:28:09;;;;;;;10.95;3.50;;;-0.60;1.00;;;-0.10;67.54;98459.81;5021695;27;119684;-63
2022/04/04 04:30:38;;;;;;;6.32;3.35;;;-0.60;1.00;;;-0.02;67.87;98472.63;5038615;27;120625;-63
2022/04/04 04:33:07;;;;;;;8.35;3.17;;;-0.50;1.00;;;0.13;67.49;98463.03;5041790;27;130147;-63
2022/04/04 04:35:36;;;;;;;7.72;3.22;;;-0.50;1.00;;;0.12;68.02;98472.09;5039808;27;130056;-63
2022/04/04 04:38:06;;;;;;;7.20;3.20;;;-0.50;1.00;;;0.23;67.33;98460.31;5039439;27;119666;-63
2022/04/04 04:40:34;;;;;;;7.28;3.03;;;-0.40;1.00;;;0.24;67.78;98466.47;5040254;27;119897;-61
2022/04/04 04:43:05;;;;;;;12.13;3.80;;;-0.40;1.00;;;0.20;67.84;98474.19;5021119;27;129910;-61
2022/04/04 04:45:33;;;;;;;7.32;4.05;;;-0.30;1.00;;;0.31;67.73;98469.66;5025224;27;128281;-60
2022/04/04 04:48:02;;;;;;;8.38;3.60;;;-0.30;1.00;;;0.35;67.98;98474.19;5025490;27;118311;-60
2022/04/04 04:50:31;;;;;;;6.47;3.38;;;-0.30;1.00;;;0.44;67.68;98487.00;5043530;27;119303;-62
2022/04/04 04:53:00;;;;;;;5.93;3.10;;;-0.20;1.00;;;0.52;67.30;98489.13;5038574;27;130011;-61
2022/04/04 04:55:28;;;;;;;11.95;3.45;;;-0.20;1.00;;;0.66;66.77;98484.81;5021105;27;129307;-62
2022/04/04 04:57:58;;;;;;;7.13;3.63;;;0.00;1.00;;;0.74;66.36;98483.47;5024356;27;118364;-62
2022/04/04 05:00:29;;;;;;;8.95;3.90;;;0.00;1.00;;;0.83;66.23;98487.19;5040404;27;119674;-61
2022/04/04 05:05:46;;;;;;;8.15;3.35;;;0.10;1.00;;;0.89;66.25;98491.44;5039862;27;129912;-62
2022/04/04 05:08:14;;;;;;;8.65;3.75;;;0.10;1.00;;;0.94;65.76;98487.94;5038600;27;121923;-61
2022/04/04 05:10:43;;;;;;;8.73;3.97;;;0.20;1.00;;;1.06;65.58;98496.44;5039661;27;121903;-61
2022/04/04 05:13:13;;;;;;;9.23;3.88;;;0.20;1.00;;;0.95;65.19;98497.56;5022422;27;131694;-63
2022/04/04 05:15:44;;;;;;;10.38;3.75;;;0.20;1.00;;;1.07;65.74;98492.69;5004406;28;128588;-62
2022/04/04 05:18:13;;;;;;;9.60;4.18;;;0.20;1.00;;;1.30;65.09;98506.50;5019450;28;119482;-63
2022/04/04 05:20:42;;;;;;;7.38;4.10;;;0.30;1.00;;;1.45;64.89;98494.94;5021942;28;119579;-63
2022/04/04 05:23:11;;;;;;;10.23;4.57;;;0.40;1.00;;;1.57;64.68;98489.25;5003994;28;129051;-63
2022/04/04 05:25:39;;;;;;;13.38;4.95;;;0.40;1.00;;;1.83;64.09;98491.78;5004687;28;129113;-61
2022/04/04 05:28:08;;;;;;;10.00;4.47;;;0.60;1.00;;;1.86;64.70;98499.25;5019280;28;119574;-62
2022/04/04 05:30:37;;;;;;;10.30;4.45;;;0.60;1.00;;;2.18;63.99;98487.22;5004681;28;119279;-64
2022/04/04 05:33:09;;;;;;;8.77;4.63;;;0.80;1.00;;;2.32;63.86;98496.19;5017747;28;129607;-61
2022/04/04 05:35:38;;;;;;;9.23;4.72;;;1.00;1.00;;;2.19;64.13;98488.81;5018920;28;130057;-62
2022/04/04 05:38:07;;;;;;;12.10;5.85;;;0.80;1.00;;;2.36;64.54;98494.53;5019304;28;119330;-67
2022/04/04 05:40:36;;;;;;;11.93;7.15;;;0.90;1.00;;;2.63;63.59;98490.53;5019507;28;119413;-61
2022/04/04 05:43:04;;;;;;;11.95;5.40;;;1.00;1.00;;;2.97;62.93;98492.31;5018647;28;130054;-62
2022/04/04 05:45:35;;;;;;;15.82;9.05;;;1.30;1.00;;;2.75;62.39;98496.31;5003941;28;128427;-65
2022/04/04 05:48:04;;;;;;;16.52;5.65;;;1.10;1.00;;;2.98;62.00;98493.94;5004439;28;119191;-63
2022/04/04 05:50:34;;;;;;;13.70;6.05;;;1.20;1.00;;;3.18;61.81;98493.69;5004651;28;119486;-64
2022/04/04 05:53:03;;;;;;;11.45;5.03;;;1.40;1.00;;;3.20;61.62;98488.03;5003775;28;128701;-61
2022/04/04 05:55:32;;;;;;;12.38;4.80;;;1.40;1.00;;;3.14;61.54;98489.97;5004191;28;129191;-61
2022/04/04 05:58:01;;;;;;;11.98;4.90;;;1.40;1.00;;;3.21;61.72;98489.59;5002760;28;122230;-63
2022/04/04 06:00:29;;;;;;;13.70;4.78;;;1.50;1.00;;;3.07;62.69;98486.84;5003803;28;121937;-62
2022/04/04 06:02:58;;;;;;;18.00;4.65;;;1.40;1.00;;;3.14;63.04;98487.28;5018462;28;130330;-61
2022/04/04 06:05:26;;;;;;;10.82;5.22;;;1.50;1.00;;;3.37;63.19;98495.59;5035234;27;130860;-60
2022/04/04 06:07:56;;;;;;;12.88;4.88;;;1.50;1.00;;;3.88;61.54;98486.84;5038864;27;120438;-62
2022/04/04 06:10:25;;;;;;;8.60;4.55;;;1.90;1.00;;;4.04;60.83;98481.22;5023711;27;119110;-62
2022/04/04 06:12:53;;;;;;;11.93;5.18;;;2.10;1.00;;;3.80;61.52;98482.09;5038768;27;130196;-62
2022/04/04 06:15:22;;;;;;;8.50;4.78;;;1.90;1.00;;;3.81;61.80;98480.22;5039086;27;129239;-62
2022/04/04 06:17:52;;;;;;;11.00;5.15;;;1.80;1.00;;;3.45;62.76;98486.13;5023280;27;118843;-60
2022/04/04 06:20:21;;;;;;;7.82;4.25;;;1.70;1.00;;;3.32;63.47;98482.22;5040300;27;120208;-61
2022/04/04 06:22:50;;;;;;;12.55;4.60;;;1.70;1.00;;;3.10;64.40;98480.09;5022325;27;129328;-61
2022/04/04 06:25:21;;;;;;;13.27;5.22;;;1.50;1.00;;;3.07;65.07;98481.50;5038159;27;129390;-62
2022/04/04 06:27:50;;;;;;;13.07;4.57;;;1.40;1.00;;;2.80;65.65;98477.50;5038339;27;119777;-63
2022/04/04 06:30:18;;;;;;;11.07;5.00;;;1.40;1.00;;;2.58;67.23;98485.25;5038925;27;119718;-62
2022/04/04 06:32:47;;;;;;;9.07;4.78;;;1.30;1.00;;;2.67;67.31;98484.34;5038333;27;129992;-62
2022/04/04 06:35:17;;;;;;;11.52;5.45;;;1.30;1.00;;;2.62;67.60;98483.59;5038048;27;130131;-62
2022/04/04 06:37:47;;;;;;;11.15;5.82;;;1.30;1.00;;;2.51;67.69;98491.72;5038593;27;120437;-62
2022/04/04 06:40:16;;;;;;;13.52;5.97;;;1.30;1.00;;;2.82;66.61;98480.69;5039031;27;119779;-62
2022/04/04 06:42:48;;;;;;;13.18;5.50;;;1.40;1.00;;;3.01;66.62;98472.69;5038289;27;129796;-62
2022/04/04 06:45:17;;;;;;;14.85;5.90;;;1.60;1.00;;;3.22;65.51;98483.97;5038426;27;129279;-64
2022/04/04 06:47:46;;;;;;;12.25;6.70;;;1.80;1.00;;;3.33;63.75;98479.25;5037154;27;121966;-63
2022/04/04 06:50:14;;;;;;;9.82;5.43;;;1.90;1.00;;;3.24;62.28;98476.44;5023734;27;120340;-63
2022/04/04 06:52:44;;;;;;;12.20;6.40;;;1.80;1.00;;;3.23;62.20;98484.78;5020319;27;130245;-61
2022/04/04 06:55:12;;;;;;;17.77;6.45;;;1.80;1.00;;;3.35;61.95;98482.47;5006291;27;129250;-63
2022/04/04 06:57:41;;;;;;;14.10;6.82;;;2.00;1.00;;;3.46;60.99;98480.47;5038520;27;120287;-61
2022/04/04 07:00:15;;;;;;;24.70;7.65;;;2.10;1.00;;;3.63;59.99;98484.50;5038421;27;119682;-63
2022/04/04 07:02:45;;;;;;;11.15;6.55;;;2.20;1.00;;;3.83;59.38;98486.88;5038129;27;130271;-64
2022/04/04 07:05:14;;;;;;;13.75;7.70;;;2.30;1.00;;;3.90;58.21;98476.59;5038197;27;130016;-64
2022/04/04 07:07:42;;;;;;;13.90;7.80;;;2.50;1.00;;;4.15;56.81;98482.66;5038160;27;119398;-63
2022/04/04 07:10:11;;;;;;;13.43;7.80;;;2.70;1.00;;;4.27;55.36;98484.84;5038314;27;119546;-63
2022/04/04 07:12:42;;;;;;;13.23;7.13;;;2.70;1.00;;;4.51;55.47;98484.72;5021885;27;129022;-61
2022/04/04 07:15:13;;;;;;;12.57;7.20;;;2.90;1.00;;;4.89;54.70;98478.38;5037635;27;130027;-61
2022/04/04 07:17:43;;;;;;;11.20;6.88;;;3.30;1.00;;;5.06;52.70;98467.81;5026620;27;118957;-61
2022/04/04 07:20:13;;;;;;;14.35;7.32;;;3.30;1.00;;;5.03;51.69;98471.09;5026374;27;118280;-63
2022/04/04 07:22:44;;;;;;;13.48;7.85;;;3.30;1.00;;;5.30;51.12;98467.59;5041265;27;129899;-63
2022/04/04 07:25:14;;;;;;;15.02;7.35;;;3.50;1.00;;;5.10;49.87;98459.97;5041443;27;129451;-63
2022/04/04 07:27:46;;;;;;;13.20;7.28;;;3.50;1.00;;;5.26;49.68;98461.22;5026454;27;119135;-62
2022/04/04 07:30:18;;;;;;;10.93;6.70;;;3.60;1.00;;;5.49;47.89;98453.22;5026972;27;119189;-61
2022/04/04 07:32:48;;;;;;;11.32;6.43;;;3.80;1.00;;;5.49;47.62;98464.78;5025734;27;128909;-64
2022/04/04 07:35:17;;;;;;;10.82;6.55;;;3.80;1.00;;;5.53;46.74;98470.34;5026323;27;129717;-63
2022/04/04 07:37:49;;;;;;;9.63;5.25;;;3.80;1.00;;;5.31;44.59;98458.41;5019855;28;121861;-62
2022/04/04 07:40:20;;;;;;;9.73;5.30;;;3.70;1.00;;;5.49;45.39;98453.22;5020858;28;122043;-62
2022/04/04 07:42:50;;;;;;;10.20;5.35;;;3.80;1.00;;;5.47;43.22;98466.16;5021022;28;129663;-63
2022/04/04 07:45:20;;;;;;;12.93;5.30;;;3.70;1.00;;;5.11;43.55;98448.09;5020633;28;129733;-63
2022/04/04 07:47:50;;;;;;;10.88;5.57;;;3.70;1.00;;;5.10;44.03;98446.53;5005850;28;118970;-62
2022/04/04 07:50:19;;;;;;;9.10;5.22;;;3.50;1.00;;;5.27;44.43;98454.75;5021034;28;119503;-61
2022/04/04 07:52:48;;;;;;;10.88;6.13;;;3.70;1.00;;;5.55;44.66;98452.00;5019345;28;130152;-63
2022/04/04 07:55:17;;;;;;;14.95;8.25;;;4.00;1.00;;;5.70;44.01;98448.97;5020692;28;129417;-63
2022/04/04 07:57:47;;;;;;;8.43;4.88;;;4.00;1.00;;;5.88;43.15;98459.88;5020722;28;119498;-62
2022/04/04 08:00:18;;;;;;;8.90;5.60;;;4.20;1.00;;;5.85;43.04;98449.72;5020946;28;119422;-62
2022/04/04 08:02:48;;;;;;;9.55;5.20;;;4.30;1.00;;;5.93;42.92;98452.44;5019325;28;130505;-62
2022/04/04 08:05:19;;;;;;;9.85;5.22;;;4.10;1.00;;;5.66;43.39;98450.66;5020587;28;130210;-62
2022/04/04 08:07:48;;;;;;;9.45;5.93;;;4.10;1.00;;;5.79;42.99;98450.94;5020502;28;120051;-61
2022/04/04 08:10:17;;;;;;;9.52;5.72;;;4.10;1.00;;;5.40;42.58;98456.59;5020774;28;120036;-62
2022/04/04 08:12:48;;;;;;;8.68;5.07;;;3.80;1.00;;;5.35;43.75;98442.50;5020192;28;129863;-63
2022/04/04 08:15:16;;;;;;;8.65;3.97;;;3.90;1.00;;;5.70;42.41;98454.34;5020283;28;130215;-62
2022/04/04 08:17:47;;;;;;;8.93;4.65;;;4.20;1.00;;;6.00;40.94;98438.59;5020423;28;119736;-63
2022/04/04 08:20:17;;;;;;;7.82;4.22;;;4.20;1.00;;;6.13;40.78;98444.22;5022677;28;119368;-63
2022/04/04 08:22:46;;;;;;;7.20;3.83;;;4.40;1.00;;;6.32;40.82;98436.72;5020134;28;129631;-61
2022/04/04 08:25:17;;;;;;;9.27;4.18;;;4.50;1.00;;;6.20;39.61;98439.19;5020003;28;129801;-63
2022/04/04 08:27:46;;;;;;;8.18;4.70;;;4.30;1.00;;;5.98;40.77;98432.69;5019015;27;122107;-64
2022/04/04 08:30:18;;;;;;;7.43;4.20;;;4.00;1.00;;;5.96;41.19;98434.09;5020067;28;121976;-61
2022/04/04 08:32:48;;;;;;;8.30;3.83;;;4.20;1.00;;;6.21;41.88;98421.91;5020154;28;130385;-62
2022/04/04 08:35:17;;;;;;;10.20;4.70;;;4.50;1.00;;;6.21;41.29;98425.41;5020203;28;130129;-64
2022/04/04 08:37:48;;;;;;;7.20;3.60;;;4.50;1.00;;;6.63;40.01;98423.22;5020235;28;119642;-61
2022/04/04 08:40:18;;;;;;;8.70;4.00;;;4.60;1.00;;;6.97;41.52;98418.25;4988851;28;119774;-62
2022/04/04 08:42:48;;;;;;;7.03;3.90;;;5.00;1.00;;;7.13;39.61;98411.28;5005193;28;129144;-62
2022/04/04 08:45:16;;;;;;;7.03;3.90;;;4.90;1.00;;;7.40;38.37;98425.63;5019915;28;129581;-63
2022/04/04 08:47:47;;;;;;;10.60;4.60;;;5.30;1.00;;;7.48;37.33;98424.03;5005074;28;119586;-62
2022/04/04 08:50:18;;;;;;;8.00;3.65;;;5.10;1.00;;;7.82;37.78;98420.56;5020047;28;119613;-62
2022/04/04 08:52:48;;;;;;;7.30;3.30;;;5.40;1.00;;;7.86;36.98;98413.38;5003541;28;129021;-64
2022/04/04 08:55:17;;;;;;;7.70;2.97;;;5.60;1.00;;;8.27;36.96;98412.03;5001570;28;129531;-63
2022/04/04 08:57:46;;;;;;;6.72;3.13;;;6.00;1.00;;;8.63;35.91;98405.41;5019820;28;119635;-62
2022/04/04 09:00:16;;;;;;;10.02;3.30;;;6.20;1.00;;;8.94;35.00;98396.19;5019807;28;119401;-63
2022/04/04 09:02:58;;;;;;;7.03;3.42;;;6.60;1.00;;;8.93;34.54;98391.91;5019355;28;129940;-64
2022/04/04 09:05:29;;;;;;;6.75;3.58;;;5.80;1.00;;;9.37;34.91;98393.53;5019403;28;129978;-64
2022/04/04 09:08:05;;;;;;;9.25;3.40;;;6.40;1.00;;;9.66;34.56;98396.16;5019755;28;119340;-64
2022/04/04 09:10:37;;;;;;;8.17;3.00;;;6.80;1.00;;;8.73;34.71;98388.03;5020543;28;119231;-64
2022/04/04 09:13:14;;;;;;;7.90;3.10;;;5.90;1.00;;;8.10;35.34;98376.94;5017900;28;130380;-63
2022/04/04 09:15:59;;;;;;;6.50;2.60;;;5.70;1.00;;;7.55;36.60;98390.06;5019369;28;129652;-61
2022/04/04 09:18:50;;;;;;;6.20;3.00;;;5.40;1.00;;;8.20;36.58;98382.00;5003418;28;120875;-62
2022/04/04 09:21:35;;;;;;;6.75;2.88;;;5.80;1.00;;;8.80;34.49;98380.19;5019595;28;121783;-64
2022/04/04 09:24:11;;;;;;;7.82;3.30;;;6.40;1.00;;;9.46;34.60;98378.00;5006058;28;105348;-62
2022/04/04 09:26:42;;;;;;;7.60;2.92;;;6.70;1.00;;;9.16;33.73;98380.75;5019594;28;130590;-67
2022/04/04 09:29:16;;;;;;;6.82;3.17;;;6.60;1.00;;;8.52;33.97;98366.31;5019302;28;119747;-63
2022/04/04 09:31:57;;;;;;;7.97;2.70;;;6.30;1.00;;;7.78;35.09;98365.56;5019392;28;119877;-62
2022/04/04 09:34:28;;;;;;;5.63;2.92;;;5.50;1.00;;;8.17;35.71;98371.06;5019305;28;129947;-64
2022/04/04 09:36:58;;;;;;;6.00;2.90;;;5.90;1.00;;;7.67;35.42;98364.34;5001785;28;129670;-61
2022/04/04 09:39:26;;;;;;;8.45;3.42;;;5.10;1.00;;;7.61;36.64;98355.59;4998987;28;119541;-62
2022/04/04 09:42:02;;;;;;;7.75;3.40;;;5.40;1.00;;;7.60;36.26;98353.22;4997849;28;120941;-63
2022/04/04 09:44:31;;;;;;;7.65;3.60;;;5.40;1.00;;;7.84;37.13;98364.31;4997615;28;130080;-62
2022/04/04 09:47:00;;;;;;;8.43;3.13;;;5.70;1.00;;;8.76;35.41;98351.44;4998094;28;129540;-64
2022/04/04 09:49:30;;;;;;;6.05;3.47;;;6.20;1.00;;;8.47;34.97;98350.28;4984150;28;118143;-64
2022/04/04 09:51:59;;;;;;;6.50;3.33;;;6.00;1.00;;;8.41;36.33;98348.84;4981662;28;120123;-63
2022/04/04 09:54:29;;;;;;;7.53;2.97;;;6.20;1.00;;;8.58;35.21;98340.69;4998371;28;129940;-63
2022/04/04 09:57:12;;;;;;;5.60;3.03;;;6.40;1.00;;;9.12;33.58;98334.63;4998720;28;129881;-64
2022/04/04 09:59:41;;;;;;;7.00;2.85;;;6.60;1.00;;;9.16;32.12;98342.88;4998791;28;119735;-64
2022/04/04 10:02:12;;;;;;;7.00;2.95;;;6.60;1.00;;;9.37;32.40;98323.13;4998983;28;119720;-61
2022/04/04 10:04:45;;;;;;;6.55;2.88;;;6.80;1.00;;;9.20;33.55;98341.09;4998377;28;130030;-63
2022/04/04 10:07:17;;;;;;;5.53;2.28;;;6.90;1.00;;;9.45;33.57;98322.25;4997316;28;129742;-64
2022/04/04 10:09:46;;;;;;;9.27;3.00;;;7.20;1.00;;;9.82;32.36;98325.88;4997508;28;122805;-61
2022/04/04 10:12:16;;;;;;;7.63;3.35;;;7.20;1.00;;;10.06;33.17;98322.41;4998413;28;121906;-61
2022/04/04 10:14:45;;;;;;;7.55;3.17;;;7.70;1.00;;;10.49;32.14;98323.06;4980036;28;130642;-62
2022/04/04 10:17:15;;;;;;;7.18;2.97;;;7.80;1.00;;;10.37;31.97;98325.75;4983465;28;129576;-63
2022/04/04 10:19:45;;;;;;;9.07;3.20;;;7.40;1.00;;;10.11;32.11;98323.31;4981568;28;119662;-64
2022/04/04 10:22:16;;;;;;;8.60;3.35;;;7.40;1.00;;;9.46;32.38;98313.03;4998725;28;119676;-66
2022/04/04 10:24:45;;;;;;;10.68;2.95;;;6.60;1.00;;;9.79;34.17;98314.94;5008104;28;130566;-61
2022/04/04 10:27:20;;;;;;;9.27;3.53;;;7.00;1.00;;;9.52;33.42;98314.38;5017962;28;129872;-63
2022/04/04 10:29:48;;;;;;;6.22;3.20;;;7.00;1.00;;;9.21;33.44;98310.19;5018352;28;119568;-63
2022/04/04 10:32:28;;;;;;;7.03;3.35;;;6.60;1.00;;;9.47;32.61;98315.41;5018701;28;119384;-63
2022/04/04 10:35:08;;;;;;;6.90;2.95;;;6.70;1.00;;;9.43;32.64;98300.16;5016637;28;129771;-64
2022/04/04 10:37:45;;;;;;;8.32;3.17;;;6.50;1.00;;;8.97;33.53;98308.16;5015246;28;129578;-64
2022/04/04 10:40:20;;;;;;;;;;;6.90;1.00;;;9.35;33.29;98289.06;5008335;28;118908;-63
2022/04/04 10:43:12;;;;;;;7.30;3.38;;;7.10;1.00;;;9.56;32.68;98293.63;5015556;28;119061;-62
2022/04/04 10:45:55;;;;;;;6.00;3.33;;;7.10;1.00;;;9.46;32.60;98283.22;5013866;28;130332;-61
2022/04/04 10:48:30;;;;;;;5.22;2.88;;;7.20;1.00;;;9.27;32.38;98287.22;4995454;28;130513;-63